createdAt,value
2023-03-10T00:04:26.232Z,11.52
2023-03-10T00:10:49.185Z,11.54
2023-03-10T00:17:09.282Z,11.55
2023-03-10T00:23:32.223Z,11.57
2023-03-10T00:29:52.186Z,11.58
2023-03-10T00:36:15.230Z,11.64
2023-03-10T00:42:35.264Z,11.75
2023-03-10T00:48:58.148Z,11.78
2023-03-10T00:55:18.256Z,11.84
2023-03-10T01:01:41.225Z,11.88
2023-03-10T01:08:01.221Z,11.88
2023-03-10T01:14:24.182Z,11.87
2023-03-10T01:20:44.229Z,11.84
2023-03-10T01:27:07.176Z,11.82
2023-03-10T01:33:27.196Z,11.79
2023-03-10T01:39:50.190Z,11.83
2023-03-10T01:46:10.261Z,11.86
2023-03-10T01:52:33.323Z,11.85
2023-03-10T01:58:53.196Z,11.79
2023-03-10T02:05:16.189Z,11.75
2023-03-10T02:11:36.234Z,11.66
2023-03-10T02:17:59.290Z,11.56
2023-03-10T02:24:19.164Z,11.48
2023-03-10T02:30:42.267Z,11.35
2023-03-10T02:37:02.189Z,11.11
2023-03-10T02:43:25.204Z,10.88
2023-03-10T02:49:45.185Z,10.75
2023-03-10T02:56:08.180Z,10.67
2023-03-10T03:02:28.222Z,10.61
2023-03-10T03:08:51.231Z,10.55
2023-03-10T03:15:11.213Z,10.51
2023-03-10T03:21:34.155Z,10.46
2023-03-10T03:27:54.335Z,10.4
2023-03-10T03:34:17.152Z,10.35
2023-03-10T03:40:37.195Z,10.36
2023-03-10T03:47:00.247Z,10.41
2023-03-10T03:53:20.218Z,10.47
2023-03-10T03:59:43.153Z,10.53
2023-03-10T04:06:03.387Z,10.51
2023-03-10T04:12:26.180Z,10.42
2023-03-10T04:18:46.220Z,10.34
2023-03-10T04:25:09.273Z,10.24
2023-03-10T04:41:34.151Z,9.96
2023-03-10T04:47:54.159Z,9.76
2023-03-10T04:54:17.211Z,9.58
2023-03-10T05:00:37.257Z,9.48
2023-03-10T05:07:00.262Z,9.45
2023-03-10T05:13:20.172Z,9.49
2023-03-10T05:19:43.242Z,9.66
2023-03-10T05:26:03.180Z,9.85
2023-03-10T05:32:26.264Z,10.01
2023-03-10T05:38:46.217Z,10.12
2023-03-10T05:45:09.191Z,10.21
2023-03-10T05:51:29.179Z,10.25
2023-03-10T05:57:52.328Z,10.31
2023-03-10T06:04:12.241Z,10.3
2023-03-10T06:10:35.210Z,10.24
2023-03-10T06:16:55.198Z,10.18
2023-03-10T06:23:18.193Z,10.14
2023-03-10T06:29:38.201Z,10.13
2023-03-10T06:36:01.293Z,10.12
2023-03-10T06:42:21.198Z,10.11
2023-03-10T06:48:44.179Z,10.09
2023-03-10T06:55:04.216Z,10.08
2023-03-10T07:01:27.250Z,10.05
2023-03-10T07:07:47.189Z,10.01
2023-03-10T07:14:10.280Z,10.03
2023-03-10T07:20:30.262Z,10.14
2023-03-10T07:26:53.233Z,10.31
2023-03-10T07:33:13.220Z,10.51
2023-03-10T07:39:36.217Z,10.7
2023-03-10T07:45:56.245Z,10.84
2023-03-10T07:52:19.324Z,10.99
2023-03-10T07:58:39.636Z,11.13
2023-03-10T08:05:02.313Z,11.24
2023-03-10T08:11:22.276Z,11.31
2023-03-10T08:17:45.182Z,11.35
2023-03-10T08:24:05.173Z,11.49
2023-03-10T08:30:28.200Z,11.67
2023-03-10T08:36:48.238Z,11.82
2023-03-10T08:43:11.388Z,11.94
2023-03-10T08:49:31.211Z,12.02
2023-03-10T08:55:54.178Z,12.18
2023-03-10T09:02:14.168Z,12.27
2023-03-10T09:08:37.237Z,12.33
2023-03-10T09:14:57.176Z,12.34
2023-03-10T09:21:20.210Z,12.35
2023-03-10T09:27:40.208Z,12.41
2023-03-10T09:34:03.170Z,12.58
2023-03-10T09:40:23.253Z,12.65
2023-03-10T09:46:46.208Z,12.77
2023-03-10T10:02:54.210Z,12.99
2023-03-10T10:09:14.171Z,13.11
2023-03-10T10:15:37.188Z,13.26
2023-03-10T10:21:57.289Z,13.47
2023-03-10T10:28:20.172Z,13.76
2023-03-10T10:34:40.166Z,14.13
2023-03-10T10:41:05.162Z,14.19
2023-03-10T10:47:23.220Z,13.99
2023-03-10T10:53:46.169Z,13.8
2023-03-10T11:00:06.188Z,13.61
2023-03-10T11:06:29.219Z,13.45
2023-03-10T11:12:49.193Z,13.33
2023-03-10T11:19:12.198Z,13.19
2023-03-10T11:25:32.161Z,13.09
2023-03-10T11:31:55.184Z,13.03
2023-03-10T11:38:15.190Z,12.91
2023-03-10T11:44:38.192Z,12.77
2023-03-10T11:50:58.208Z,12.58
2023-03-10T11:57:21.217Z,12.16
2023-03-10T12:03:41.243Z,11.78
2023-03-10T12:10:04.156Z,11.46
2023-03-10T12:16:24.213Z,11.27
2023-03-10T12:22:47.171Z,11.17
2023-03-10T12:29:07.169Z,11.09
2023-03-10T12:35:30.316Z,10.98
2023-03-10T12:41:50.155Z,10.85
2023-03-10T12:48:13.288Z,10.95
2023-03-10T12:54:33.265Z,11.06
2023-03-10T13:00:56.210Z,11.11
2023-03-10T13:07:16.175Z,11.15
2023-03-10T13:13:39.206Z,11.2
2023-03-10T13:19:59.212Z,11.21
2023-03-10T13:26:22.174Z,11.25
2023-03-10T13:32:42.296Z,11.19
2023-03-10T13:39:05.182Z,11.17
2023-03-10T13:45:25.156Z,11.13
2023-03-10T13:51:48.264Z,11.07
2023-03-10T13:58:08.172Z,11
2023-03-10T14:04:31.205Z,10.91
2023-03-10T14:10:51.200Z,10.7
2023-03-10T14:17:14.194Z,10.44
2023-03-10T14:23:34.230Z,10.24
2023-03-10T14:29:57.214Z,10.01
2023-03-10T14:36:17.179Z,9.89
2023-03-10T14:42:40.195Z,9.83
2023-03-10T14:49:00.191Z,9.75
2023-03-10T14:55:23.221Z,9.7
2023-03-10T15:01:43.302Z,9.67
2023-03-10T15:08:06.229Z,9.61
2023-03-10T15:14:26.188Z,9.47
2023-03-10T15:37:50.223Z,8.9
2023-03-10T15:44:13.160Z,8.67
2023-03-10T15:50:33.197Z,8.36
2023-03-10T15:56:56.232Z,8.16
2023-03-10T16:03:18.217Z,8.14
2023-03-10T16:09:39.242Z,8.15
2023-03-10T16:15:59.290Z,8.15
2023-03-10T16:22:22.192Z,8.15
2023-03-10T16:28:42.193Z,8.13
2023-03-10T16:35:05.245Z,8.08
2023-03-10T16:41:25.222Z,7.94
2023-03-10T16:47:48.205Z,7.76
2023-03-10T16:54:08.226Z,7.39
2023-03-10T17:00:31.192Z,6.75
2023-03-10T17:06:51.178Z,5.78
2023-03-10T17:13:14.273Z,4.94
2023-03-10T17:19:34.634Z,4.18
2023-03-10T17:25:58.240Z,3.65
2023-03-10T17:32:17.371Z,3.17
2023-03-10T17:38:40.171Z,2.86
2023-03-10T17:45:00.196Z,2.63
2023-03-10T17:51:23.175Z,2.41
2023-03-10T17:57:43.285Z,2.21
2023-03-10T18:04:06.210Z,2.14
2023-03-10T18:10:26.210Z,2.16
2023-03-10T18:16:49.184Z,2.15
2023-03-10T18:23:09.188Z,2.16
2023-03-10T18:29:32.197Z,2.19
2023-03-10T18:35:52.139Z,2.21
2023-03-10T18:42:15.174Z,2.24
2023-03-10T18:48:35.232Z,2.27
2023-03-10T18:54:58.192Z,2.28
2023-03-10T19:01:18.269Z,2.25
2023-03-10T19:07:41.219Z,2.18
2023-03-10T19:14:01.183Z,2.12
2023-03-10T19:20:24.187Z,2.11
2023-03-10T19:26:44.272Z,2.16
2023-03-10T19:33:07.345Z,2.23
2023-03-10T19:39:27.231Z,2.27
2023-03-10T19:45:50.237Z,2.26
2023-03-10T19:52:10.155Z,2.23
2023-03-10T19:58:33.146Z,2.26
2023-03-10T20:04:53.243Z,2.28
2023-03-10T20:11:17.182Z,2.16
2023-03-10T20:17:36.252Z,2.09
2023-03-10T20:23:59.299Z,2.09
2023-03-10T20:30:19.251Z,2.13
2023-03-10T20:36:42.208Z,2.12
2023-03-10T20:43:02.211Z,2.05
2023-03-10T20:59:31.086Z,1.93
2023-03-10T21:05:51.179Z,1.95
2023-03-10T21:12:14.148Z,1.99
2023-03-10T21:18:34.188Z,2.03
2023-03-10T21:24:57.173Z,2.06
2023-03-10T21:31:17.342Z,2.05
2023-03-10T21:37:42.170Z,2.02
2023-03-10T21:44:00.190Z,1.98
2023-03-10T21:50:23.290Z,1.98
2023-03-10T21:56:43.245Z,1.97
2023-03-10T22:03:06.162Z,1.94
2023-03-10T22:09:26.206Z,1.9
2023-03-10T22:15:49.261Z,1.88
2023-03-10T22:22:09.209Z,1.86
2023-03-10T22:28:32.161Z,1.86
2023-03-10T22:34:52.202Z,1.84
2023-03-10T22:41:15.209Z,1.77
2023-03-10T22:47:35.210Z,1.69
2023-03-10T22:53:58.289Z,1.62
2023-03-10T23:00:18.163Z,1.57
2023-03-10T23:23:16.236Z,1.77
2023-03-10T23:29:36.186Z,1.78
2023-03-10T23:35:59.237Z,1.79
2023-03-10T23:42:19.208Z,1.81
2023-03-10T23:48:42.172Z,1.85
2023-03-10T23:55:02.171Z,1.9
